Time;durP1;ratioP1;P1;durP2;ratioP2;P2;SDS_P1;SDS_P2;PMS_P1;PMS_P2;Temp;Humidity;BMP_temperature;BMP_pressure;BME280_temperature;BME280_humidity;BME280_pressure;Samples;Min_cycle;Max_cycle;Signal;HPM_P1;HPM_P2
2022/10/11 00:01:58;;;;;;;10.13;6.93;;;13.50;86.30;;;12.08;100.00;96487.31;4989916;28;20117;-67
2022/10/11 00:04:24;;;;;;;11.60;8.60;;;13.60;86.30;;;12.10;100.00;96484.50;5000804;28;20064;-67
2022/10/11 00:06:50;;;;;;;12.77;8.40;;;13.60;86.10;;;12.10;100.00;96490.59;4990796;28;20077;-67
2022/10/11 00:09:16;;;;;;;14.52;8.50;;;13.60;86.20;;;12.12;100.00;96488.56;5002503;28;20118;-66
2022/10/11 00:11:41;;;;;;;13.40;8.82;;;13.60;86.10;;;12.14;100.00;96497.09;4989551;28;20073;-66
2022/10/11 00:14:07;;;;;;;14.50;8.98;;;13.60;86.00;;;12.16;100.00;96505.66;4985001;28;20038;-66
2022/10/11 00:16:33;;;;;;;9.65;8.45;;;13.60;86.10;;;12.16;100.00;96495.09;4982830;28;20045;-66
2022/10/11 00:18:59;;;;;;;11.82;8.13;;;13.60;86.00;;;12.18;100.00;96492.25;4963114;28;20034;-66
2022/10/11 00:21:24;;;;;;;12.93;8.20;;;13.60;85.90;;;12.18;100.00;96502.81;4983122;28;20566;-67
2022/10/11 00:23:50;;;;;;;10.52;7.28;;;13.60;85.90;;;12.18;100.00;96487.81;4993451;28;20558;-66
2022/10/11 00:26:16;;;;;;;10.30;7.07;;;13.70;85.90;;;12.21;100.00;96492.69;4964673;28;20042;-66
2022/10/11 00:28:42;;;;;;;9.90;6.75;;;13.70;85.90;;;12.22;100.00;96491.72;4960492;28;20054;-67
2022/10/11 00:31:10;;;;;;;11.50;7.78;;;13.70;85.90;;;12.24;100.00;96492.34;5017127;28;20438;-66
2022/10/11 00:33:35;;;;;;;11.50;6.95;;;13.70;86.00;;;12.25;100.00;96495.78;4981772;28;20045;-66
2022/10/11 00:36:01;;;;;;;12.98;7.20;;;13.70;86.00;;;12.27;100.00;96496.41;4967177;28;20027;-67
2022/10/11 00:38:28;;;;;;;10.60;6.78;;;13.70;85.90;;;12.28;100.00;96498.06;4974105;28;20042;-67
2022/10/11 00:40:54;;;;;;;9.73;6.60;;;13.70;86.00;;;12.29;100.00;96497.03;4972434;28;20041;-66
2022/10/11 00:43:22;;;;;;;8.35;6.90;;;13.80;86.00;;;12.30;100.00;96496.03;4983382;28;20058;-67
2022/10/11 00:46:25;;;;;;;10.02;6.78;;;13.80;85.90;;;12.33;100.00;96500.13;4958394;28;20030;-67
2022/10/11 00:48:56;;;;;;;10.43;7.00;;;13.80;85.90;;;12.32;100.00;96507.22;4987053;28;20061;-68
2022/10/11 00:51:52;;;;;;;10.07;6.70;;;13.80;85.80;;;12.35;100.00;96498.09;4983207;28;20117;-67
2022/10/11 00:54:21;;;;;;;9.43;6.65;;;13.90;85.70;;;12.34;100.00;96504.38;4978701;28;20038;-66
2022/10/11 00:56:49;;;;;;;11.43;6.75;;;13.80;85.70;;;12.36;100.00;96512.94;4965113;28;20041;-67
2022/10/11 00:59:20;;;;;;;10.02;6.57;;;13.80;85.60;;;12.37;100.00;96511.91;4983796;28;20038;-67
2022/10/11 01:01:45;;;;;;;11.30;6.90;;;13.80;85.60;;;12.37;100.00;96506.63;4972926;28;20034;-68
2022/10/11 01:04:11;;;;;;;10.77;6.97;;;13.90;85.60;;;12.37;100.00;96514.56;4981993;28;20617;-67
2022/10/11 01:06:37;;;;;;;9.05;6.50;;;13.80;85.50;;;12.36;100.00;96508.47;4999376;28;20514;-67
2022/10/11 01:09:03;;;;;;;11.02;6.20;;;13.80;85.70;;;12.36;100.00;96507.66;4984046;28;20583;-67
2022/10/11 01:11:29;;;;;;;12.63;6.25;;;13.80;85.60;;;12.38;100.00;96508.28;4966582;28;20042;-67
2022/10/11 01:14:06;;;;;;;11.63;6.95;;;13.80;85.60;;;12.40;100.00;96506.25;4964000;28;20156;-67
2022/10/11 01:16:44;;;;;;;9.48;6.07;;;13.90;85.60;;;12.42;100.00;96507.69;5005670;28;20313;-67
2022/10/11 01:19:54;;;;;;;12.45;7.07;;;13.90;85.70;;;12.42;100.00;96509.53;4973795;28;20045;-67
2022/10/11 01:23:10;;;;;;;9.93;6.55;;;13.90;85.80;;;12.42;100.00;96501.59;4996224;28;20042;-67
2022/10/11 01:26:11;;;;;;;14.02;6.47;;;13.90;85.80;;;12.42;100.00;96499.78;4990104;28;20049;-67
2022/10/11 01:28:40;;;;;;;11.05;5.88;;;13.90;85.90;;;12.43;100.00;96495.31;4996745;28;20684;-67
2022/10/11 01:31:25;;;;;;;10.52;6.20;;;13.90;85.90;;;12.46;100.00;96494.97;5005416;28;20042;-67
2022/10/11 01:34:13;;;;;;;18.27;9.82;;;14.00;85.70;;;12.45;100.00;96498.63;4984537;28;20038;-67
2022/10/11 01:36:44;;;;;;;33.90;21.95;;;13.90;85.80;;;12.44;100.00;96499.59;4995461;28;20470;-67
2022/10/11 01:39:42;;;;;;;23.60;16.02;;;13.90;85.80;;;12.44;100.00;96497.75;4981456;28;20078;-69
2022/10/11 01:42:09;;;;;;;19.35;12.18;;;13.80;86.10;;;12.43;100.00;96498.78;4990100;28;20091;-68
2022/10/11 01:44:36;;;;;;;18.25;10.13;;;13.90;86.00;;;12.43;100.00;96495.31;4972333;28;20494;-68
2022/10/11 01:47:02;;;;;;;10.85;7.97;;;13.80;86.00;;;12.41;100.00;96499.97;4983142;28;20026;-67
2022/10/11 01:49:27;;;;;;;11.55;7.70;;;13.80;86.20;;;12.38;100.00;96503.81;4997217;28;20046;-67
2022/10/11 01:51:54;;;;;;;14.00;6.68;;;13.80;86.30;;;12.38;100.00;96503.00;5007297;28;20076;-67
2022/10/11 01:54:35;;;;;;;15.85;7.65;;;13.80;86.30;;;12.38;100.00;96500.34;5002137;28;20108;-67
2022/10/11 01:57:22;;;;;;;;;;;13.80;86.40;;;12.35;100.00;96503.38;5005294;28;20180;-67
2022/10/11 02:00:17;;;;;;;9.85;6.93;;;13.80;86.30;;;12.33;100.00;96505.41;4998557;28;19943;-67
2022/10/11 02:02:51;;;;;;;9.65;6.40;;;13.70;86.50;;;12.32;100.00;96501.94;4986420;28;20489;-67
2022/10/11 02:06:00;;;;;;;12.88;6.88;;;13.80;86.40;;;12.34;100.00;96499.09;5008088;28;20040;-67
2022/10/11 02:08:56;;;;;;;12.40;7.25;;;13.80;86.30;;;12.33;100.00;96493.03;5006143;28;20048;-67
2022/10/11 02:11:30;;;;;;;12.55;8.10;;;13.80;86.40;;;12.33;100.00;96505.41;4992488;28;20042;-68
2022/10/11 02:14:03;;;;;;;13.90;8.02;;;13.70;86.60;;;12.32;100.00;96504.56;5000523;28;20525;-67
2022/10/11 02:16:38;;;;;;;12.27;8.05;;;13.70;86.80;;;12.32;100.00;96499.31;4976127;28;20030;-67
2022/10/11 02:19:04;;;;;;;14.32;7.50;;;13.70;86.70;;;12.33;100.00;96500.13;4992680;28;20034;-67
2022/10/11 02:21:30;;;;;;;12.18;8.00;;;13.80;86.70;;;12.34;100.00;96501.75;4988372;28;20080;-67
2022/10/11 02:24:26;;;;;;;11.73;7.55;;;13.80;86.70;;;12.38;100.00;96497.72;4976290;28;20072;-67
2022/10/11 02:26:53;;;;;;;9.95;7.57;;;13.90;86.60;;;12.38;100.00;96492.44;4997513;28;20060;-67
2022/10/11 02:29:19;;;;;;;13.60;7.82;;;13.90;86.50;;;12.41;100.00;96497.34;4976781;28;20040;-67
2022/10/11 02:31:45;;;;;;;10.95;8.13;;;13.90;86.40;;;12.41;100.00;96492.88;4983000;28;20379;-67
2022/10/11 02:34:21;;;;;;;12.90;7.45;;;13.90;86.30;;;12.44;100.00;96502.22;4968640;28;20065;-67
2022/10/11 02:37:09;;;;;;;10.40;7.32;;;14.00;86.30;;;12.46;100.00;96502.88;4976303;28;20026;-67
2022/10/11 02:39:40;;;;;;;10.50;7.40;;;14.00;86.30;;;12.45;100.00;96499.44;4990704;28;20067;-67
2022/10/11 02:42:09;;;;;;;8.20;6.68;;;13.90;86.20;;;12.45;100.00;96503.88;4985136;28;20044;-67
2022/10/11 02:44:39;;;;;;;9.35;7.22;;;13.90;86.20;;;12.44;100.00;96504.88;4963652;28;20501;-68
2022/10/11 02:47:05;;;;;;;11.10;7.75;;;13.90;86.30;;;12.44;100.00;96496.94;4980511;28;20042;-68
2022/10/11 02:49:31;;;;;;;10.23;7.50;;;13.90;86.30;;;12.45;100.00;96502.06;4962459;28;20037;-69
2022/10/11 02:51:57;;;;;;;14.98;7.80;;;14.00;86.20;;;12.46;100.00;96494.97;4988135;28;20031;-70
2022/10/11 02:54:24;;;;;;;9.68;7.82;;;13.90;86.10;;;12.46;100.00;96494.97;4973508;28;20042;-64
2022/10/11 02:56:50;;;;;;;16.40;12.05;;;14.00;86.10;;;12.47;100.00;96494.78;5007886;28;20112;-65
2022/10/11 02:59:15;;;;;;;39.70;35.00;;;14.00;86.20;;;12.51;100.00;96503.13;4982063;28;20097;-65
2022/10/11 03:01:41;;;;;;;45.00;39.85;;;14.10;86.40;;;12.54;100.00;96498.28;4986687;28;20177;-64
2022/10/11 03:04:07;;;;;;;42.75;34.13;;;14.10;86.40;;;12.56;100.00;96495.44;4982327;28;20479;-64
2022/10/11 03:06:33;;;;;;;22.35;16.30;;;14.10;86.20;;;12.57;100.00;96497.88;4999691;28;20073;-65
2022/10/11 03:08:59;;;;;;;14.13;8.25;;;14.10;86.10;;;12.58;100.00;96499.50;5006948;28;20113;-64
2022/10/11 03:11:24;;;;;;;14.68;8.25;;;14.10;85.80;;;12.61;100.00;96500.13;5002169;28;20512;-65
2022/10/11 03:13:50;;;;;;;13.43;7.35;;;14.10;85.50;;;12.60;100.00;96496.69;4999676;28;20497;-65
2022/10/11 03:16:16;;;;;;;13.80;6.80;;;14.10;85.30;;;12.62;100.00;96505.22;4988210;28;20088;-64
2022/10/11 03:18:42;;;;;;;9.52;6.25;;;14.10;85.30;;;12.64;100.00;96519.03;4966154;28;20054;-64
2022/10/11 03:21:08;;;;;;;15.15;11.52;;;14.10;85.60;;;12.65;100.00;96517.22;4985043;28;20045;-65
2022/10/11 03:23:34;;;;;;;25.55;21.60;;;14.20;85.60;;;12.66;100.00;96518.84;5007718;28;20026;-66
2022/10/11 03:25:59;;;;;;;19.73;15.70;;;14.20;85.70;;;12.66;100.00;96527.56;4984186;28;20046;-65
2022/10/11 03:28:25;;;;;;;12.85;10.05;;;14.20;85.60;;;12.68;100.00;96536.16;4978910;28;20185;-64
2022/10/11 03:30:51;;;;;;;13.10;10.30;;;14.20;85.60;;;12.67;100.00;96534.47;4986269;28;20061;-66
2022/10/11 03:33:17;;;;;;;11.88;8.30;;;14.20;85.60;;;12.68;100.00;96535.34;4971434;28;20053;-65
2022/10/11 03:35:46;;;;;;;12.85;8.52;;;14.20;85.50;;;12.67;100.00;96542.41;4963096;28;20035;-65
2022/10/11 03:38:13;;;;;;;8.57;6.80;;;14.20;85.50;;;12.67;100.00;96550.31;4986103;28;20041;-65
2022/10/11 03:40:40;;;;;;;9.93;6.90;;;14.10;85.70;;;12.66;100.00;96547.88;5001997;28;20033;-65
2022/10/11 03:43:06;;;;;;;9.68;7.13;;;14.20;85.70;;;12.66;100.00;96542.59;4946862;28;20026;-66
2022/10/11 03:45:32;;;;;;;12.27;6.72;;;14.20;85.70;;;12.65;100.00;96552.34;5005203;28;20103;-65
2022/10/11 03:47:58;;;;;;;15.07;7.20;;;14.10;85.70;;;12.65;100.00;96552.34;5001133;28;20053;-66
2022/10/11 03:50:23;;;;;;;10.10;6.70;;;14.10;85.70;;;12.65;100.00;96556.81;4966240;28;20034;-65
2022/10/11 03:52:49;;;;;;;9.30;7.25;;;14.10;85.80;;;12.65;100.00;96552.34;4976254;28;20069;-70
2022/10/11 03:55:15;;;;;;;11.40;6.97;;;14.20;85.70;;;12.65;100.00;96559.44;5007897;28;20040;-63
2022/10/11 03:57:41;;;;;;;9.63;6.78;;;14.10;85.80;;;12.65;100.00;96554.97;4960161;28;20038;-63
2022/10/11 04:00:07;;;;;;;9.93;6.72;;;14.10;85.80;;;12.64;100.00;96558.63;4972925;28;20043;-63
2022/10/11 04:02:33;;;;;;;8.07;6.90;;;14.10;85.80;;;12.63;100.00;96556.19;4972565;28;20038;-64
2022/10/11 04:04:59;;;;;;;11.45;7.15;;;14.10;85.90;;;12.60;100.00;96553.91;5005793;28;20042;-63
2022/10/11 04:07:25;;;;;;;13.40;7.65;;;14.10;86.10;;;12.58;100.00;96560.22;4988706;28;20146;-63
2022/10/11 04:09:51;;;;;;;10.85;7.40;;;14.00;86.10;;;12.58;100.00;96562.84;4985998;28;20498;-63
2022/10/11 04:12:17;;;;;;;9.38;6.80;;;14.10;86.10;;;12.57;100.00;96557.75;4975747;28;20533;-63
2022/10/11 04:14:42;;;;;;;9.27;7.05;;;14.10;86.30;;;12.57;100.00;96552.47;5006375;28;20050;-63
2022/10/11 04:17:08;;;;;;;9.45;6.80;;;14.10;86.30;;;12.58;100.00;96559.41;4992204;28;20073;-63
2022/10/11 04:19:36;;;;;;;9.52;6.07;;;14.10;86.30;;;12.58;100.00;96559.41;4975757;28;20034;-63
2022/10/11 04:22:03;;;;;;;9.77;7.00;;;14.10;86.30;;;12.60;100.00;96567.94;5008837;28;20037;-63
2022/10/11 04:24:29;;;;;;;11.65;7.55;;;14.10;86.30;;;12.61;100.00;96566.94;4992149;28;20038;-63
2022/10/11 04:26:54;;;;;;;8.35;5.97;;;14.10;86.40;;;12.64;100.00;96565.72;4975361;28;20026;-63
2022/10/11 04:29:20;;;;;;;9.20;6.18;;;14.20;86.30;;;12.65;100.00;96568.16;4975665;28;20827;-63
2022/10/11 04:31:46;;;;;;;8.85;6.55;;;14.20;86.20;;;12.65;100.00;96565.53;4976313;28;20652;-63
2022/10/11 04:34:12;;;;;;;9.43;6.43;;;14.20;86.20;;;12.68;100.00;96567.00;5008493;28;20061;-63
2022/10/11 04:36:38;;;;;;;18.05;13.32;;;14.20;86.20;;;12.69;100.00;96566.00;5008079;28;20044;-63
2022/10/11 04:39:05;;;;;;;37.75;33.58;;;14.30;86.30;;;12.71;100.00;96570.06;5009466;28;20037;-63
2022/10/11 04:41:30;;;;;;;17.33;15.45;;;14.40;86.40;;;12.72;100.00;96563.78;4990769;28;20037;-63
2022/10/11 04:43:56;;;;;;;15.20;11.70;;;14.40;86.20;;;12.76;100.00;96569.50;4992160;28;20495;-63
2022/10/11 04:46:22;;;;;;;13.02;10.32;;;14.40;86.00;;;12.76;100.00;96569.50;4975188;28;20053;-63
2022/10/11 04:48:48;;;;;;;11.18;7.72;;;14.40;85.80;;;12.78;100.00;96567.47;4974579;28;20022;-63
2022/10/11 04:51:14;;;;;;;12.05;7.13;;;14.40;85.80;;;12.78;100.00;96568.28;4990813;28;20057;-63
2022/10/11 04:53:39;;;;;;;9.25;6.35;;;14.30;85.70;;;12.78;100.00;96568.28;4992729;28;20332;-63
2022/10/11 04:56:09;;;;;;;10.05;6.45;;;14.30;85.70;;;12.79;100.00;96564.66;5005001;28;20057;-63
2022/10/11 04:58:35;;;;;;;12.57;7.07;;;14.30;85.70;;;12.77;100.00;96563.22;4995495;28;20067;-64
2022/10/11 05:01:01;;;;;;;10.32;5.75;;;14.40;85.40;;;12.76;100.00;96551.03;4972463;28;20108;-64
2022/10/11 05:03:27;;;;;;;10.70;6.70;;;14.30;85.60;;;12.75;100.00;96563.41;4974145;28;20112;-63
2022/10/11 05:05:53;;;;;;;9.70;7.45;;;14.20;85.70;;;12.74;100.00;96564.41;4972510;28;20058;-63
2022/10/11 05:08:19;;;;;;;9.23;6.00;;;14.20;85.60;;;12.73;100.00;96561.97;4975548;28;20045;-63
2022/10/11 05:11:20;;;;;;;10.48;6.47;;;14.20;85.80;;;12.70;100.00;96560.53;5008441;28;20125;-63
2022/10/11 05:13:46;;;;;;;9.50;6.70;;;14.10;85.90;;;12.67;100.00;96562.69;4935655;28;20038;-63
2022/10/11 05:16:12;;;;;;;7.97;6.28;;;14.10;86.00;;;12.65;100.00;96570.81;4967562;28;20437;-63
2022/10/11 05:18:38;;;;;;;11.60;6.30;;;14.10;86.10;;;12.64;100.00;96561.25;4971988;28;20097;-63
2022/10/11 05:21:21;;;;;;;8.60;6.00;;;14.10;86.20;;;12.64;100.00;96571.00;4991454;28;20113;-63
2022/10/11 05:23:48;;;;;;;7.63;5.85;;;14.10;86.20;;;12.62;100.00;96573.03;5012064;28;20026;-63
2022/10/11 05:26:14;;;;;;;11.38;6.50;;;14.10;86.30;;;12.61;100.00;96577.47;4995455;28;20041;-63
2022/10/11 05:28:40;;;;;;;11.00;6.05;;;14.10;86.30;;;12.61;100.00;96571.38;4995022;28;20486;-64
2022/10/11 05:31:05;;;;;;;9.73;6.75;;;14.10;86.20;;;12.61;100.00;96574.84;4978535;28;20064;-63
2022/10/11 05:33:31;;;;;;;7.75;5.85;;;14.10;86.20;;;12.61;100.00;96574.84;4994936;28;20072;-63
2022/10/11 05:35:57;;;;;;;8.32;6.03;;;14.10;86.30;;;12.62;100.00;96573.03;4958825;28;20442;-63
2022/10/11 05:38:23;;;;;;;20.52;17.15;;;14.10;86.30;;;12.62;100.00;96578.31;4994467;28;20472;-63
2022/10/11 05:40:48;;;;;;;18.63;15.35;;;14.20;86.30;;;12.64;100.00;96578.91;4995474;28;20485;-63
2022/10/11 05:43:14;;;;;;;11.85;8.40;;;14.20;86.30;;;12.64;100.00;96582.38;5011355;28;20213;-63
2022/10/11 05:45:41;;;;;;;8.65;7.10;;;14.20;86.10;;;12.64;100.00;96578.91;4995176;28;20143;-63
2022/10/11 05:48:07;;;;;;;13.38;7.22;;;14.10;86.10;;;12.62;100.00;96579.13;4976644;28;20042;-64
2022/10/11 05:50:33;;;;;;;10.02;7.38;;;14.10;86.30;;;12.63;100.00;96591.31;4994631;28;20026;-63
2022/10/11 05:52:59;;;;;;;9.05;6.88;;;14.10;86.20;;;12.65;100.00;96599.03;4963015;28;20160;-63
2022/10/11 05:55:24;;;;;;;8.93;6.63;;;14.20;86.20;;;12.64;100.00;96598.22;5011170;28;20040;-63
2022/10/11 05:57:54;;;;;;;10.70;6.93;;;14.20;86.30;;;12.64;100.00;96598.22;4962325;28;20061;-63
2022/10/11 06:00:20;;;;;;;12.07;7.28;;;14.20;86.40;;;12.65;100.00;96605.13;4978193;28;20058;-63
2022/10/11 06:02:46;;;;;;;8.60;6.68;;;14.20;86.30;;;12.66;100.00;96598.03;4993894;28;20553;-63
2022/10/11 06:05:12;;;;;;;9.88;7.10;;;14.20;86.20;;;12.67;100.00;96600.47;5007695;28;20080;-64
2022/10/11 06:07:38;;;;;;;10.77;6.50;;;14.20;86.00;;;12.68;100.00;96599.50;4994760;28;20034;-63
2022/10/11 06:10:05;;;;;;;15.52;6.85;;;14.20;86.10;;;12.70;100.00;96602.75;4978624;28;20037;-64
2022/10/11 06:12:31;;;;;;;8.95;6.38;;;14.20;86.10;;;12.71;100.00;96603.56;4994592;28;20049;-63
2022/10/11 06:14:57;;;;;;;7.97;6.40;;;14.20;85.80;;;12.71;100.00;96598.28;4994798;28;20022;-63
2022/10/11 06:17:22;;;;;;;12.18;5.85;;;14.30;85.90;;;12.74;100.00;96613.75;5009662;28;20486;-63
2022/10/11 06:19:49;;;;;;;8.63;6.38;;;14.30;86.00;;;12.77;100.00;96616.81;5010755;28;20045;-63
2022/10/11 06:22:15;;;;;;;9.27;6.38;;;14.40;85.90;;;12.81;100.00;96609.34;4978032;28;20038;-63
2022/10/11 06:24:41;;;;;;;9.73;6.78;;;14.50;85.90;;;12.84;100.00;96615.03;4962370;28;20121;-63
2022/10/11 06:27:07;;;;;;;13.05;6.50;;;14.50;85.90;;;12.88;100.00;96616.28;5012019;28;20092;-64
2022/10/11 06:29:33;;;;;;;12.85;7.50;;;14.60;85.70;;;12.94;100.00;96619.22;4993775;28;20041;-64
2022/10/11 06:31:59;;;;;;;9.95;7.28;;;14.60;85.40;;;12.97;100.00;96624.91;4993805;28;20041;-63
2022/10/11 06:34:25;;;;;;;11.75;7.38;;;14.60;85.30;;;13.01;100.00;96614.78;4977327;28;20077;-63
2022/10/11 06:36:51;;;;;;;12.98;7.68;;;14.70;85.10;;;13.03;100.00;96610.94;4994426;28;20096;-63
2022/10/11 06:39:17;;;;;;;16.83;7.38;;;14.80;85.10;;;13.06;100.00;96615.00;4961736;28;20041;-63
2022/10/11 06:41:42;;;;;;;10.68;7.40;;;14.70;85.00;;;13.11;100.00;96620.53;5010504;28;20121;-63
2022/10/11 06:44:12;;;;;;;14.15;7.45;;;14.80;84.80;;;13.16;100.00;96621.63;5010534;28;20073;-63
2022/10/11 06:46:38;;;;;;;10.57;7.35;;;14.90;84.60;;;13.22;100.00;96620.06;4946569;28;20045;-63
2022/10/11 06:49:03;;;;;;;18.80;7.40;;;15.00;84.60;;;13.28;100.00;96621.91;4977405;28;20030;-63
2022/10/11 06:51:29;;;;;;;11.18;6.57;;;15.10;84.80;;;13.33;100.00;96619.50;4994003;28;20522;-63
2022/10/11 06:53:57;;;;;;;9.98;6.30;;;15.10;84.20;;;13.39;100.00;96624.03;4977787;28;20465;-63
2022/10/11 06:56:24;;;;;;;11.82;6.28;;;15.20;84.10;;;13.45;100.00;96623.25;4977464;28;20129;-64
2022/10/11 06:58:50;;;;;;;10.43;6.60;;;15.20;83.70;;;13.48;100.00;96633.44;4971111;28;20057;-63
2022/10/11 07:01:17;;;;;;;10.98;6.25;;;15.30;83.70;;;13.53;100.00;96634.69;4974923;28;20505;-63
2022/10/11 07:03:44;;;;;;;12.73;6.97;;;15.30;83.60;;;13.56;100.00;96643.03;4978036;28;20041;-64
2022/10/11 07:06:12;;;;;;;14.73;6.78;;;15.30;84.00;;;13.60;100.00;96640.84;4977809;28;20482;-63
2022/10/11 07:08:38;;;;;;;11.65;7.30;;;15.40;83.70;;;13.65;100.00;96641.06;4976632;28;20424;-64
2022/10/11 07:11:16;;;;;;;13.90;8.25;;;15.40;83.80;;;13.68;100.00;96638.84;4977539;28;20033;-64
2022/10/11 07:13:42;;;;;;;15.48;9.77;;;15.50;83.40;;;13.73;100.00;96643.53;4991939;28;20084;-63
2022/10/11 07:16:10;;;;;;;14.60;8.52;;;15.50;83.00;;;13.80;100.00;96652.31;4977055;28;20022;-63
2022/10/11 07:18:36;;;;;;;11.15;7.80;;;15.50;82.70;;;13.83;100.00;96646.66;4976969;28;20080;-64
2022/10/11 07:21:06;;;;;;;10.30;7.50;;;15.60;82.60;;;13.89;100.00;96645.88;4976637;28;20509;-63
2022/10/11 07:23:32;;;;;;;9.02;5.55;;;15.70;82.80;;;13.93;100.00;96647.09;4974512;28;20026;-63
2022/10/11 07:25:57;;;;;;;6.13;5.10;;;15.70;82.40;;;13.95;100.00;96645.06;4990180;28;20068;-63
2022/10/11 07:28:23;;;;;;;9.60;5.28;;;15.70;82.10;;;14.01;100.00;96648.75;4989180;28;20062;-64
2022/10/11 07:30:49;;;;;;;8.07;5.20;;;15.80;82.30;;;14.09;100.00;96656.56;4990073;28;20030;-63
2022/10/11 07:33:15;;;;;;;7.32;4.82;;;16.00;82.00;;;14.16;100.00;96656.56;4992900;28;20052;-63
2022/10/11 07:35:41;;;;;;;9.50;5.47;;;16.10;81.90;;;14.22;100.00;96655.78;4989716;28;20462;-63
2022/10/11 07:38:07;;;;;;;7.57;4.55;;;16.10;81.70;;;14.28;100.00;96661.09;4989268;28;20491;-63
2022/10/11 07:40:33;;;;;;;9.18;5.07;;;16.10;81.70;;;14.32;100.00;96661.53;4989048;28;20042;-63
2022/10/11 07:42:59;;;;;;;8.13;4.78;;;16.10;81.30;;;14.34;100.00;96664.78;4989701;28;20032;-63
2022/10/11 07:45:27;;;;;;;11.68;4.82;;;16.10;80.90;;;14.36;100.00;96658.28;4987974;28;20084;-63
2022/10/11 07:47:55;;;;;;;10.98;5.20;;;16.20;80.80;;;14.38;100.00;96666.00;4973222;28;20041;-63
2022/10/11 07:50:21;;;;;;;11.82;5.88;;;16.20;80.60;;;14.41;100.00;96668.25;4985301;28;20049;-64
2022/10/11 07:52:46;;;;;;;6.90;4.90;;;16.30;80.40;;;14.42;100.00;96667.25;5009105;28;20061;-64
2022/10/11 07:55:12;;;;;;;7.40;5.15;;;16.30;80.40;;;14.44;100.00;96665.25;4992743;28;20080;-64
2022/10/11 07:57:38;;;;;;;7.63;5.07;;;16.40;80.30;;;14.51;100.00;96670.56;4992568;28;20054;-64
2022/10/11 08:00:04;;;;;;;9.07;4.97;;;16.70;79.90;;;14.59;100.00;96668.56;5010265;28;20037;-64
2022/10/11 08:02:30;;;;;;;9.82;5.07;;;16.90;79.30;;;14.70;100.00;96662.66;4970555;28;20637;-64
2022/10/11 08:04:56;;;;;;;8.73;4.18;;;17.40;78.10;;;14.91;100.00;96669.63;4956215;28;20121;-64
2022/10/11 08:07:21;;;;;;;8.43;4.35;;;18.60;75.20;;;15.25;100.00;96668.63;5008283;28;20029;-63
2022/10/11 08:09:47;;;;;;;8.55;4.10;;;19.60;72.30;;;15.65;100.00;96662.53;4972093;28;20462;-64
2022/10/11 08:12:13;;;;;;;7.97;3.90;;;20.40;69.70;;;16.10;100.00;96666.91;4992026;28;20454;-64
2022/10/11 08:14:42;;;;;;;8.95;4.13;;;21.00;66.40;;;16.52;100.00;96673.47;4975090;28;20061;-64
2022/10/11 08:17:07;;;;;;;8.20;4.18;;;21.10;65.20;;;16.91;100.00;96668.94;4976812;28;20034;-64
2022/10/11 08:19:33;;;;;;;9.60;3.70;;;21.50;63.10;;;17.28;100.00;96669.09;5008578;28;20061;-64
2022/10/11 08:21:59;;;;;;;8.50;4.25;;;21.40;63.60;;;17.56;100.00;96664.16;4976318;28;20030;-64
2022/10/11 08:24:25;;;;;;;7.03;3.33;;;21.20;64.50;;;17.85;100.00;96669.81;4991745;28;20581;-64
2022/10/11 08:26:51;;;;;;;6.93;3.80;;;21.30;64.00;;;18.04;100.00;96671.47;5008825;28;20155;-64
2022/10/11 08:29:17;;;;;;;7.88;3.70;;;21.20;63.90;;;18.17;100.00;96670.53;4974964;28;20036;-64
2022/10/11 08:31:46;;;;;;;9.95;4.15;;;21.00;64.10;;;18.24;100.00;96677.38;4956887;28;20066;-64
2022/10/11 08:34:11;;;;;;;8.98;3.90;;;20.90;64.00;;;18.32;100.00;96671.75;4973220;28;20046;-64
2022/10/11 08:36:37;;;;;;;6.13;3.53;;;21.10;63.40;;;18.41;100.00;96668.78;4988502;28;20518;-64
2022/10/11 08:39:07;;;;;;;8.57;3.22;;;21.10;63.30;;;18.47;100.00;96673.22;4988857;28;20066;-64
2022/10/11 08:42:01;;;;;;;6.78;3.65;;;21.00;63.00;;;18.54;100.00;96673.94;4957244;28;20488;-64
2022/10/11 08:44:50;;;;;;;10.32;3.67;;;21.00;63.10;;;18.55;100.00;96676.38;4991401;28;20050;-64
2022/10/11 08:47:26;;;;;;;11.23;4.40;;;21.10;62.60;;;18.63;100.00;96677.97;4973444;28;20043;-64
2022/10/11 08:49:52;;;;;;;8.15;3.45;;;21.30;62.50;;;18.70;100.00;96678.69;4957014;28;20030;-64
2022/10/11 08:52:40;;;;;;;9.85;4.03;;;21.20;62.60;;;18.78;100.00;96674.88;4973022;28;20036;-64
2022/10/11 08:55:16;;;;;;;9.68;3.80;;;21.20;62.90;;;18.80;100.00;96684.31;4979408;28;20031;-64
2022/10/11 08:57:41;;;;;;;12.10;3.75;;;21.20;63.40;;;18.82;100.00;96686.75;4980780;28;20026;-64
2022/10/11 09:00:14;;;;;;;9.30;3.90;;;21.00;63.00;;;18.82;100.00;96682.22;4976425;28;20034;-64
2022/10/11 09:02:47;;;;;;;8.32;3.40;;;21.10;63.20;;;18.81;100.00;96690.44;4959994;28;20038;-64
2022/10/11 09:05:16;;;;;;;8.95;4.13;;;20.90;63.10;;;18.79;100.00;96688.00;4992751;28;20044;-65
2022/10/11 09:08:09;;;;;;;8.20;3.80;;;20.90;63.30;;;18.78;99.08;96694.34;4992559;28;20046;-64
2022/10/11 09:10:50;;;;;;;10.65;3.78;;;20.90;63.20;;;18.75;99.65;96686.81;4992226;28;20105;-64
2022/10/11 09:13:48;;;;;;;6.93;3.50;;;20.90;63.00;;;18.73;98.67;96680.88;5011691;28;20096;-64
2022/10/11 09:16:52;;;;;;;10.57;4.07;;;20.80;62.70;;;18.75;98.36;96686.81;5012274;28;20684;-64
2022/10/11 09:19:36;;;;;;;5.90;3.92;;;20.90;62.80;;;18.77;99.31;96695.38;5011384;28;20042;-64
2022/10/11 09:22:20;;;;;;;7.80;3.53;;;21.00;63.20;;;18.80;99.67;96686.16;5013447;28;20076;-64
2022/10/11 09:24:58;;;;;;;7.47;3.80;;;21.00;63.20;;;18.80;99.22;96681.63;5011802;28;20029;-64
2022/10/11 09:27:30;;;;;;;10.05;3.65;;;21.00;62.90;;;18.77;98.85;96684.72;5011518;28;20160;-64
2022/10/11 09:30:14;;;;;;;8.68;3.95;;;20.80;63.30;;;18.71;96.90;96682.97;4979984;28;20034;-62
2022/10/11 09:33:20;;;;;;;6.95;3.53;;;20.60;63.50;;;18.64;98.95;96690.25;4979778;28;20034;-62
2022/10/11 09:35:48;;;;;;;6.03;3.28;;;20.50;64.50;;;18.53;100.00;96688.28;4979309;28;20582;-62
2022/10/11 09:38:39;;;;;;;5.45;3.40;;;20.30;64.80;;;18.45;99.05;96691.28;4978743;28;20030;-63
2022/10/11 09:41:13;;;;;;;7.38;3.58;;;20.10;65.30;;;18.33;99.88;96684.06;4994125;28;20092;-63
2022/10/11 09:43:39;;;;;;;9.80;3.70;;;19.90;65.80;;;18.24;100.00;96672.06;5004734;28;20030;-63
2022/10/11 09:46:33;;;;;;;9.27;3.78;;;19.90;65.50;;;18.16;99.70;96677.69;4995159;28;20061;-63
2022/10/11 09:48:59;;;;;;;6.35;3.63;;;19.90;66.30;;;18.10;100.00;96678.56;5007323;28;20030;-63
2022/10/11 09:51:26;;;;;;;8.05;3.63;;;20.10;65.70;;;18.18;100.00;96675.63;4995008;28;20046;-63
2022/10/11 09:54:05;;;;;;;7.30;3.50;;;20.40;65.70;;;18.35;100.00;96671.31;4978233;28;20037;-62
2022/10/11 09:56:33;;;;;;;6.15;3.25;;;21.00;63.60;;;18.58;100.00;96675.13;4994281;28;20538;-62
2022/10/11 09:59:15;;;;;;;7.32;3.35;;;21.70;62.00;;;19.10;100.00;96673.59;4978951;28;20619;-62
2022/10/11 10:01:41;;;;;;;5.82;2.90;;;25.30;53.70;;;19.89;100.00;96668.81;4996499;28;20034;-63
2022/10/11 10:04:15;;;;;;;5.25;2.78;;;27.80;45.60;;;20.70;93.62;96673.19;4977991;28;20058;-62
2022/10/11 10:06:41;;;;;;;7.28;3.45;;;28.10;44.40;;;21.30;94.70;96675.34;4978944;28;20385;-63
2022/10/11 10:09:27;;;;;;;5.47;2.78;;;27.70;43.10;;;21.70;84.32;96666.31;4976986;28;20041;-63
2022/10/11 10:11:54;;;;;;;7.68;3.17;;;26.80;46.20;;;21.97;89.96;96677.16;4994703;28;20382;-62
2022/10/11 10:14:27;;;;;;;6.10;2.47;;;26.50;47.00;;;22.25;80.00;96669.00;4974933;28;20038;-64
2022/10/11 10:17:15;;;;;;;7.10;2.58;;;27.30;44.30;;;22.53;77.50;96659.13;4975275;28;20034;-63
2022/10/11 10:19:48;;;;;;;6.15;2.60;;;27.10;45.40;;;23.19;77.18;96667.88;4977423;28;20034;-64
2022/10/11 10:22:20;;;;;;;5.20;2.25;;;31.20;38.10;;;23.86;74.89;96671.91;4991635;28;20109;-64
2022/10/11 10:24:46;;;;;;;3.22;2.20;;;31.10;36.80;;;24.17;79.18;96673.69;4959114;28;20041;-64